createdAt,value
2023-05-10T00:01:42.661Z,15.88
2023-05-10T00:06:44.427Z,16.15
2023-05-10T00:11:46.132Z,16.10
2023-05-10T00:16:47.902Z,15.93
2023-05-10T00:21:50.101Z,13.50
2023-05-10T00:26:51.843Z,15.75
2023-05-10T00:31:53.640Z,13.80
2023-05-10T00:36:55.486Z,15.30
2023-05-10T00:41:57.292Z,16.58
2023-05-10T00:47:00.110Z,16.48
2023-05-10T00:52:02.968Z,14.20
2023-05-10T00:57:05.141Z,13.60
2023-05-10T01:02:07.649Z,14.07
2023-05-10T01:07:09.476Z,13.02
2023-05-10T01:12:13.018Z,12.07
2023-05-10T01:17:15.522Z,13.23
2023-05-10T01:22:31.506Z,14.82
2023-05-10T01:28:00.632Z,11.52
2023-05-10T01:33:22.139Z,10.00
2023-05-10T01:38:32.867Z,11.95
2023-05-10T01:43:46.606Z,8.65
2023-05-10T01:48:56.654Z,5.10
2023-05-10T01:54:03.111Z,4.68
2023-05-10T01:59:10.333Z,4.75
2023-05-10T02:04:16.633Z,4.80
2023-05-10T02:09:21.172Z,5.43
2023-05-10T02:14:25.340Z,3.85
2023-05-10T02:19:29.761Z,3.40
2023-05-10T02:24:34.503Z,4.15
2023-05-10T02:29:37.498Z,3.95
2023-05-10T02:34:40.479Z,4.90
2023-05-10T02:39:45.029Z,7.78
2023-05-10T02:44:49.857Z,3.35
2023-05-10T02:49:51.699Z,4.05
2023-05-10T02:54:56.808Z,3.13
2023-05-10T02:59:59.335Z,4.53
2023-05-10T03:05:01.192Z,3.63
2023-05-10T03:10:04.419Z,3.85
2023-05-10T03:15:21.269Z,2.15
2023-05-10T03:20:32.207Z,3.17
2023-05-10T03:25:35.309Z,2.85
2023-05-10T03:30:40.300Z,1.60
2023-05-10T03:35:43.215Z,0.90
2023-05-10T03:40:44.993Z,0.90
2023-05-10T03:45:46.845Z,0.93
2023-05-10T03:50:50.233Z,2.25
2023-05-10T03:55:52.193Z,1.00
2023-05-10T04:00:54.070Z,1.00
2023-05-10T04:06:02.889Z,1.45
2023-05-10T04:11:11.762Z,1.48
2023-05-10T04:16:13.731Z,2.17
2023-05-10T04:21:15.868Z,1.23
2023-05-10T04:26:17.696Z,3.15
2023-05-10T04:31:19.568Z,0.98
2023-05-10T04:36:21.349Z,2.30
2023-05-10T04:41:23.096Z,1.55
2023-05-10T04:46:24.850Z,1.25
2023-05-10T04:51:26.568Z,1.40
2023-05-10T04:56:28.349Z,2.42
2023-05-10T05:01:30.301Z,1.80
2023-05-10T05:06:32.053Z,1.20
2023-05-10T05:11:33.774Z,3.25
2023-05-10T05:16:35.759Z,2.03
2023-05-10T05:21:37.628Z,2.67
2023-05-10T05:26:39.721Z,1.50
2023-05-10T05:31:41.509Z,3.97
2023-05-10T05:36:43.298Z,2.30
2023-05-10T05:41:45.045Z,2.53
2023-05-10T05:46:46.740Z,1.95
2023-05-10T05:51:50.507Z,1.52
2023-05-10T05:56:54.483Z,1.50
2023-05-10T06:01:56.240Z,1.27
2023-05-10T06:06:58.294Z,1.38
2023-05-10T06:12:00.081Z,2.67
2023-05-10T06:17:02.012Z,1.30
2023-05-10T06:22:03.950Z,1.98
2023-05-10T06:27:06.816Z,2.58
2023-05-10T06:32:08.598Z,1.98
2023-05-10T06:37:10.518Z,1.33
2023-05-10T06:42:12.315Z,1.38
2023-05-10T06:47:14.049Z,4.38
2023-05-10T06:52:15.820Z,9.27
2023-05-10T06:57:30.376Z,3.28
2023-05-10T07:02:33.422Z,1.80
2023-05-10T07:07:35.191Z,3.55
2023-05-10T07:12:36.971Z,3.42
2023-05-10T07:17:38.854Z,5.45
2023-05-10T07:22:40.839Z,1.42
2023-05-10T07:27:42.562Z,1.65
2023-05-10T07:32:44.349Z,2.10
2023-05-10T07:37:46.175Z,2.53
2023-05-10T07:42:47.867Z,1.85
2023-05-10T07:47:49.642Z,3.80
2023-05-10T07:52:51.553Z,6.55
2023-05-10T07:57:53.572Z,7.10
2023-05-10T08:02:55.383Z,9.07
2023-05-10T08:07:57.147Z,3.55
2023-05-10T08:12:59.535Z,3.22
2023-05-10T08:18:01.286Z,3.85
2023-05-10T08:23:03.098Z,4.47
2023-05-10T08:28:05.095Z,2.63
2023-05-10T08:33:06.899Z,3.17
2023-05-10T08:38:08.878Z,10.13
2023-05-10T08:43:12.934Z,4.13
2023-05-10T08:53:18.091Z,3.67
2023-05-10T08:58:20.613Z,3.10
2023-05-10T09:03:22.434Z,8.27
2023-05-10T09:08:28.307Z,1.90
2023-05-10T09:13:30.941Z,8.23
2023-05-10T09:18:32.659Z,3.83
2023-05-10T09:23:34.493Z,2.80
2023-05-10T09:28:58.206Z,3.60
2023-05-10T09:33:59.929Z,3.17
2023-05-10T09:39:01.621Z,3.58
2023-05-10T09:44:03.571Z,9.15
2023-05-10T09:49:06.760Z,5.28
2023-05-10T09:54:17.039Z,4.17
2023-05-10T09:59:19.583Z,3.13
2023-05-10T10:04:22.414Z,2.58
2023-05-10T10:09:24.682Z,2.58
2023-05-10T10:14:26.833Z,2.88
2023-05-10T10:19:29.393Z,2.50
2023-05-10T10:24:31.137Z,1.85
2023-05-10T10:30:01.837Z,3.60
2023-05-10T10:35:05.025Z,1.77
2023-05-10T10:40:24.698Z,3.70
2023-05-10T10:45:27.394Z,4.90
2023-05-10T10:50:29.738Z,3.00
2023-05-10T10:55:31.696Z,3.13
2023-05-10T11:00:38.286Z,2.47
2023-05-10T11:05:52.252Z,1.83
2023-05-10T11:16:17.035Z,5.63
2023-05-10T11:21:19.389Z,3.30
2023-05-10T11:26:24.220Z,5.20
2023-05-10T11:31:27.928Z,2.65
2023-05-10T11:41:32.559Z,4.15
2023-05-10T11:46:34.374Z,2.97
2023-05-10T11:51:37.349Z,4.20
2023-05-10T11:56:42.191Z,6.33
2023-05-10T12:01:44.217Z,2.58
2023-05-10T12:06:47.592Z,2.67
2023-05-10T12:11:49.336Z,5.93
2023-05-10T12:16:51.785Z,1.90
2023-05-10T12:21:53.667Z,1.35
2023-05-10T12:26:55.379Z,4.88
2023-05-10T12:31:59.362Z,3.40
2023-05-10T12:37:01.687Z,1.40
2023-05-10T12:42:03.577Z,14.63
2023-05-10T12:47:05.422Z,4.28
2023-05-10T12:52:07.328Z,1.60
2023-05-10T12:57:10.356Z,3.37
2023-05-10T13:02:12.301Z,1.80
2023-05-10T13:07:14.462Z,2.65
2023-05-10T13:12:16.363Z,3.50
2023-05-10T13:17:18.294Z,1.92
2023-05-10T13:22:28.715Z,2.70
2023-05-10T13:27:41.559Z,2.03
2023-05-10T13:32:43.452Z,1.63
2023-05-10T13:37:45.209Z,2.10
2023-05-10T13:42:47.025Z,2.22
2023-05-10T13:47:48.801Z,4.43
2023-05-10T13:52:50.824Z,1.75
2023-05-10T13:57:52.847Z,1.50
2023-05-10T14:02:55.071Z,1.27
2023-05-10T14:07:57.010Z,2.20
2023-05-10T14:12:58.759Z,0.88
2023-05-10T14:18:00.501Z,1.75
2023-05-10T14:23:02.329Z,1.25
2023-05-10T14:28:04.347Z,5.85
2023-05-10T14:33:06.300Z,1.30
2023-05-10T14:38:08.077Z,1.80
2023-05-10T14:43:10.120Z,2.80
2023-05-10T14:48:16.356Z,2.00
2023-05-10T14:53:18.732Z,6.38
2023-05-10T14:58:20.620Z,2.53
2023-05-10T15:03:22.524Z,3.22
2023-05-10T15:08:25.652Z,4.30
2023-05-10T15:13:27.355Z,6.53
2023-05-10T15:18:29.103Z,2.45
2023-05-10T15:23:31.286Z,4.82
2023-05-10T15:28:34.399Z,7.90
2023-05-10T15:33:38.142Z,1.97
2023-05-10T15:38:39.919Z,5.60
2023-05-10T15:43:41.645Z,2.83
2023-05-10T15:48:43.481Z,4.13
2023-05-10T15:54:00.402Z,2.65
2023-05-10T15:59:08.699Z,2.75
2023-05-10T16:04:10.748Z,2.78
2023-05-10T16:09:12.677Z,4.32
2023-05-10T16:14:14.766Z,2.05
2023-05-10T16:19:16.613Z,1.63
2023-05-10T16:24:18.526Z,2.92
2023-05-10T16:29:20.237Z,6.85
2023-05-10T16:34:24.244Z,3.53
2023-05-10T16:44:27.714Z,4.22
2023-05-10T16:49:29.398Z,4.65
2023-05-10T16:54:31.146Z,2.40
2023-05-10T16:59:32.850Z,1.95
2023-05-10T17:04:35.314Z,3.05
2023-05-10T17:09:37.043Z,3.60
2023-05-10T17:14:38.851Z,2.30
2023-05-10T17:19:40.616Z,2.15
2023-05-10T17:24:42.305Z,2.47
2023-05-10T17:29:44.080Z,2.28
2023-05-10T17:34:45.914Z,2.00
2023-05-10T17:39:47.632Z,3.40
2023-05-10T17:44:49.363Z,4.68
2023-05-10T17:49:51.101Z,4.95
2023-05-10T17:54:53.313Z,3.70
2023-05-10T17:59:55.066Z,7.13
2023-05-10T18:04:59.667Z,3.50
2023-05-10T18:10:01.806Z,3.53
2023-05-10T18:15:04.042Z,3.35
2023-05-10T18:20:07.351Z,1.60
2023-05-10T18:25:09.526Z,4.33
2023-05-10T18:30:12.548Z,4.03
2023-05-10T18:35:14.497Z,2.55
2023-05-10T18:40:17.927Z,4.25
2023-05-10T18:45:19.932Z,2.60
2023-05-10T18:50:21.967Z,4.15
2023-05-10T18:55:26.838Z,5.18
2023-05-10T19:00:28.744Z,3.20
2023-05-10T19:05:31.617Z,3.10
2023-05-10T19:10:33.340Z,2.38
2023-05-10T19:15:35.126Z,2.92
2023-05-10T19:20:38.090Z,4.00
2023-05-10T19:25:42.279Z,4.43
2023-05-10T19:30:44.031Z,4.50
2023-05-10T19:35:45.834Z,2.22
2023-05-10T19:40:48.500Z,3.08
2023-05-10T19:45:50.260Z,6.00
2023-05-10T19:50:53.247Z,5.05
2023-05-10T19:55:55.806Z,3.05
2023-05-10T20:00:57.552Z,3.28
2023-05-10T20:05:59.349Z,3.67
2023-05-10T20:11:03.546Z,6.47
2023-05-10T20:21:08.026Z,3.65
2023-05-10T20:26:09.971Z,4.65
2023-05-10T20:31:11.882Z,5.63
2023-05-10T20:36:13.734Z,2.17
2023-05-10T20:41:15.478Z,5.55
2023-05-10T20:46:17.324Z,3.90
2023-05-10T20:51:19.184Z,2.88
2023-05-10T20:56:21.371Z,6.93
2023-05-10T21:01:23.162Z,2.10
2023-05-10T21:06:25.074Z,3.03
2023-05-10T21:11:26.863Z,3.65
2023-05-10T21:16:28.630Z,5.72
2023-05-10T21:21:30.373Z,3.60
2023-05-10T21:26:32.497Z,4.78
2023-05-10T21:31:34.444Z,5.05
2023-05-10T21:36:36.206Z,3.42
2023-05-10T21:41:37.964Z,2.75
2023-05-10T21:46:39.691Z,2.17
2023-05-10T21:51:41.398Z,2.50
2023-05-10T21:56:43.104Z,3.10
2023-05-10T22:01:44.955Z,3.00
2023-05-10T22:06:46.909Z,2.25
2023-05-10T22:11:48.695Z,2.92
2023-05-10T22:16:50.537Z,3.22
2023-05-10T22:21:53.079Z,2.72
2023-05-10T22:26:56.053Z,2.70
2023-05-10T22:31:58.271Z,3.80
2023-05-10T22:37:00.001Z,6.53
2023-05-10T22:42:01.944Z,4.38
2023-05-10T22:47:04.001Z,5.25
2023-05-10T22:52:05.854Z,3.50
2023-05-10T22:57:07.702Z,2.00
2023-05-10T23:02:09.972Z,2.17
2023-05-10T23:07:12.096Z,2.63
2023-05-10T23:12:13.791Z,2.88
2023-05-10T23:17:15.520Z,6.13
2023-05-10T23:22:17.459Z,2.83
2023-05-10T23:27:19.212Z,3.95
2023-05-10T23:32:21.062Z,4.32
2023-05-10T23:37:22.921Z,2.78
2023-05-10T23:42:24.622Z,2.90
2023-05-10T23:47:26.862Z,6.00
2023-05-10T23:52:28.568Z,3.13
2023-05-10T23:57:30.338Z,5.30
